createdAt,value
2018-08-27T00:02:19.374Z,15.30
2018-08-27T00:04:47.202Z,15.20
2018-08-27T00:07:15.558Z,15.30
2018-08-27T00:09:43.262Z,15.30
2018-08-27T00:12:10.934Z,15.30
2018-08-27T00:14:38.614Z,15.30
2018-08-27T00:17:06.313Z,15.30
2018-08-27T00:19:34.452Z,15.30
2018-08-27T00:22:02.078Z,15.30
2018-08-27T00:24:29.774Z,15.20
2018-08-27T00:26:57.494Z,15.20
2018-08-27T00:29:25.229Z,15.20
2018-08-27T00:31:52.902Z,15.10
2018-08-27T00:34:20.902Z,15.10
2018-08-27T00:36:48.702Z,15.20
2018-08-27T00:39:16.463Z,15.20
2018-08-27T00:41:44.114Z,15.10
2018-08-27T00:44:12.493Z,15.20
2018-08-27T00:46:40.157Z,15.10
2018-08-27T00:49:07.823Z,15.00
2018-08-27T00:51:35.490Z,14.90
2018-08-27T00:54:03.310Z,14.90
2018-08-27T00:56:30.978Z,14.90
2018-08-27T00:58:58.635Z,14.90
2018-08-27T01:01:26.893Z,14.80
2018-08-27T01:03:54.566Z,14.80
2018-08-27T01:06:22.423Z,14.80
2018-08-27T01:08:50.247Z,14.80
2018-08-27T01:11:18.339Z,14.80
2018-08-27T01:13:46.566Z,14.70
2018-08-27T01:16:14.858Z,14.70
2018-08-27T01:18:42.566Z,14.60
2018-08-27T01:21:10.258Z,14.50
2018-08-27T01:23:38.482Z,14.60
2018-08-27T01:26:06.208Z,14.60
2018-08-27T01:28:33.887Z,14.60
2018-08-27T01:31:01.650Z,14.50
2018-08-27T01:33:29.652Z,14.50
2018-08-27T01:35:57.329Z,14.40
2018-08-27T01:38:24.975Z,14.40
2018-08-27T01:40:52.917Z,14.40
2018-08-27T01:43:20.896Z,14.30
2018-08-27T01:45:49.395Z,14.40
2018-08-27T01:48:17.076Z,14.30
2018-08-27T01:50:44.802Z,14.30
2018-08-27T01:53:12.629Z,14.30
2018-08-27T01:55:40.298Z,14.30
2018-08-27T01:58:08.014Z,14.30
2018-08-27T02:00:35.674Z,14.40
2018-08-27T02:03:03.347Z,14.30
2018-08-27T02:05:31.014Z,14.40
2018-08-27T02:07:58.697Z,14.40
2018-08-27T02:10:48.671Z,14.40
2018-08-27T02:13:16.331Z,14.50
2018-08-27T02:15:44.599Z,14.50
2018-08-27T02:18:12.213Z,14.50
2018-08-27T02:20:39.910Z,14.50
2018-08-27T02:23:07.653Z,14.50
2018-08-27T02:25:35.318Z,14.50
2018-08-27T02:28:03.007Z,14.50
2018-08-27T02:30:30.674Z,14.40
2018-08-27T02:32:58.373Z,14.50
2018-08-27T02:35:26.075Z,14.50
2018-08-27T02:37:53.850Z,14.50
2018-08-27T02:40:21.550Z,14.50
2018-08-27T02:42:49.262Z,14.60
2018-08-27T02:45:17.378Z,14.60
2018-08-27T02:47:45.026Z,14.60
2018-08-27T02:50:12.681Z,14.50
2018-08-27T02:52:40.414Z,14.60
2018-08-27T02:55:08.283Z,14.60
2018-08-27T02:57:35.937Z,14.60
2018-08-27T03:00:03.694Z,14.70
2018-08-27T03:02:31.409Z,14.60
2018-08-27T03:04:59.333Z,14.70
2018-08-27T03:07:27.024Z,14.70
2018-08-27T03:09:54.858Z,14.60
2018-08-27T03:12:22.535Z,14.70
2018-08-27T03:14:50.271Z,14.80
2018-08-27T03:17:17.953Z,14.80
2018-08-27T03:19:45.626Z,14.80
2018-08-27T03:22:13.373Z,14.90
2018-08-27T03:24:41.017Z,14.90
2018-08-27T03:27:08.685Z,15.00
2018-08-27T03:29:36.329Z,15.00
2018-08-27T03:32:04.561Z,15.10
2018-08-27T03:34:32.335Z,15.10
2018-08-27T03:37:00.006Z,15.10
2018-08-27T03:39:30.658Z,15.20
2018-08-27T03:41:58.314Z,15.20
2018-08-27T03:44:25.992Z,15.20
2018-08-27T03:46:54.080Z,15.30
2018-08-27T03:49:21.741Z,15.30
2018-08-27T03:51:49.426Z,15.30
2018-08-27T03:54:17.077Z,15.30
2018-08-27T03:56:44.759Z,15.30
2018-08-27T03:59:13.433Z,15.40
2018-08-27T04:01:41.390Z,15.40
2018-08-27T04:04:09.367Z,15.40
2018-08-27T04:06:37.078Z,15.40
2018-08-27T04:09:06.697Z,15.40
2018-08-27T04:11:34.385Z,15.40
2018-08-27T04:14:02.106Z,15.40
2018-08-27T04:16:29.814Z,15.40
2018-08-27T04:18:57.640Z,15.40
2018-08-27T04:21:25.337Z,15.40
2018-08-27T04:23:53.049Z,15.50
2018-08-27T04:26:20.749Z,15.50
2018-08-27T04:28:48.439Z,15.50
2018-08-27T04:31:16.118Z,15.40
2018-08-27T04:33:44.733Z,15.50
2018-08-27T04:36:12.625Z,15.40
2018-08-27T04:38:40.456Z,15.40
2018-08-27T04:41:08.456Z,15.40
2018-08-27T04:43:36.627Z,15.50
2018-08-27T04:46:04.294Z,15.50
2018-08-27T04:48:32.645Z,15.50
2018-08-27T04:51:00.379Z,15.50
2018-08-27T04:53:31.981Z,15.60
2018-08-27T04:55:59.702Z,15.60
2018-08-27T04:58:30.518Z,15.60
2018-08-27T05:00:58.562Z,15.60
2018-08-27T05:03:26.246Z,15.60
2018-08-27T05:05:53.914Z,15.60
2018-08-27T05:08:21.577Z,15.70
2018-08-27T05:10:49.255Z,15.70
2018-08-27T05:13:17.060Z,15.70
2018-08-27T05:15:44.617Z,15.70
2018-08-27T05:18:12.814Z,15.70
2018-08-27T05:20:40.462Z,15.70
2018-08-27T05:23:08.137Z,15.70
2018-08-27T05:25:36.257Z,15.70
2018-08-27T05:28:03.995Z,15.80
2018-08-27T05:30:31.821Z,15.90
2018-08-27T05:32:59.474Z,15.90
2018-08-27T05:35:27.258Z,15.90
2018-08-27T05:37:55.014Z,15.90
2018-08-27T05:40:22.693Z,15.90
2018-08-27T05:42:50.382Z,15.90
2018-08-27T05:45:18.010Z,15.90
2018-08-27T05:47:45.978Z,15.90
2018-08-27T05:50:13.561Z,15.90
2018-08-27T05:52:41.235Z,15.90
2018-08-27T05:55:08.885Z,16.00
2018-08-27T05:57:36.553Z,16.20
2018-08-27T06:00:04.838Z,16.40
2018-08-27T06:02:32.518Z,16.60
2018-08-27T06:05:00.207Z,16.60
2018-08-27T06:07:27.895Z,16.60
2018-08-27T06:09:55.580Z,16.50
2018-08-27T06:12:23.250Z,16.40
2018-08-27T06:14:50.914Z,16.40
2018-08-27T06:17:18.709Z,16.40
2018-08-27T06:19:46.358Z,16.50
2018-08-27T06:22:14.182Z,16.50
2018-08-27T06:24:42.299Z,16.50
2018-08-27T06:27:10.362Z,16.50
2018-08-27T06:29:38.059Z,16.50
2018-08-27T06:32:05.805Z,16.60
2018-08-27T06:34:33.527Z,16.60
2018-08-27T06:37:01.190Z,16.70
2018-08-27T06:39:28.866Z,16.80
2018-08-27T06:41:56.511Z,16.80
2018-08-27T06:44:26.143Z,16.90
2018-08-27T06:46:53.794Z,17.20
2018-08-27T06:49:23.342Z,17.20
2018-08-27T06:51:50.994Z,17.20
2018-08-27T06:54:18.657Z,17.10
2018-08-27T06:56:46.399Z,17.20
2018-08-27T06:59:14.062Z,17.30
2018-08-27T07:01:41.770Z,17.30
2018-08-27T07:04:13.313Z,17.40
2018-08-27T07:06:40.963Z,17.50
2018-08-27T07:09:09.506Z,17.60
2018-08-27T07:11:37.197Z,17.70
2018-08-27T07:14:06.254Z,17.80
2018-08-27T07:16:33.885Z,17.80
2018-08-27T07:19:01.550Z,17.80
2018-08-27T07:21:29.194Z,17.90
2018-08-27T07:23:56.922Z,18.00
2018-08-27T07:26:24.611Z,18.10
2018-08-27T07:28:52.353Z,18.10
2018-08-27T07:31:19.986Z,18.20
2018-08-27T07:33:47.657Z,18.30
2018-08-27T07:36:15.436Z,18.20
2018-08-27T07:38:43.062Z,18.20
2018-08-27T07:41:10.729Z,18.40
2018-08-27T07:43:38.463Z,18.40
2018-08-27T07:46:06.203Z,18.50
2018-08-27T07:48:33.873Z,18.40
2018-08-27T07:51:01.564Z,18.40
2018-08-27T07:53:29.878Z,18.40
2018-08-27T07:55:57.554Z,18.40
2018-08-27T07:58:25.423Z,18.50
2018-08-27T08:00:53.084Z,18.50
2018-08-27T08:03:20.721Z,18.60
2018-08-27T08:05:48.394Z,18.60
2018-08-27T08:08:16.041Z,18.60
2018-08-27T08:10:43.722Z,18.70
2018-08-27T08:13:11.333Z,18.70
2018-08-27T08:15:38.996Z,18.60
2018-08-27T08:18:11.552Z,18.60
2018-08-27T08:20:39.304Z,18.70
2018-08-27T08:23:07.417Z,18.80
2018-08-27T08:25:35.358Z,18.90
2018-08-27T08:28:04.793Z,18.90
2018-08-27T08:30:32.468Z,19.00
2018-08-27T08:33:00.758Z,19.10
2018-08-27T08:35:49.571Z,19.10
2018-08-27T08:38:39.705Z,19.10
2018-08-27T08:41:27.731Z,19.30
2018-08-27T08:44:05.898Z,19.70
2018-08-27T08:46:52.984Z,19.70
2018-08-27T08:49:42.078Z,20.00
2018-08-27T08:52:21.451Z,19.70
2018-08-27T08:54:49.134Z,19.70
2018-08-27T08:57:17.000Z,19.60
2018-08-27T08:59:44.642Z,19.50
2018-08-27T09:02:12.461Z,19.40
2018-08-27T09:04:40.242Z,19.20
2018-08-27T09:07:08.680Z,19.20
2018-08-27T09:09:36.386Z,19.20
2018-08-27T09:12:04.177Z,19.20
2018-08-27T09:14:31.817Z,19.30
2018-08-27T09:16:59.625Z,19.40
2018-08-27T09:19:27.246Z,19.60
2018-08-27T09:21:54.926Z,19.70
2018-08-27T09:24:22.553Z,19.70
2018-08-27T09:26:50.844Z,19.70
2018-08-27T09:29:18.483Z,19.70
2018-08-27T09:31:46.915Z,19.60
2018-08-27T09:34:15.178Z,19.70
2018-08-27T09:36:45.310Z,19.70
2018-08-27T09:39:13.020Z,19.70
2018-08-27T09:41:40.757Z,19.70
2018-08-27T09:44:08.424Z,19.90
2018-08-27T09:46:36.528Z,19.90
2018-08-27T09:49:04.350Z,19.90
2018-08-27T09:51:32.003Z,19.80
2018-08-27T09:53:59.745Z,19.80
2018-08-27T09:56:27.738Z,19.70
2018-08-27T09:58:55.526Z,19.80
2018-08-27T10:01:30.494Z,19.80
2018-08-27T10:03:58.257Z,19.70
2018-08-27T10:06:25.909Z,19.70
2018-08-27T10:08:53.543Z,19.80
2018-08-27T10:11:21.231Z,19.80
2018-08-27T10:13:48.862Z,19.70
2018-08-27T10:16:19.434Z,19.90
2018-08-27T10:18:47.089Z,20.00
2018-08-27T10:21:14.792Z,20.20
2018-08-27T10:23:42.558Z,20.50
2018-08-27T10:26:10.227Z,20.70
2018-08-27T10:28:37.881Z,21.00
2018-08-27T10:31:05.907Z,21.00
2018-08-27T10:33:33.702Z,21.00
2018-08-27T10:36:01.380Z,21.20
2018-08-27T10:38:29.431Z,21.10
2018-08-27T10:40:57.097Z,21.00
2018-08-27T10:43:24.812Z,21.00
2018-08-27T10:45:52.514Z,21.00
2018-08-27T10:48:20.258Z,21.30
2018-08-27T10:50:48.982Z,21.20
2018-08-27T10:53:16.751Z,21.10
2018-08-27T10:55:44.582Z,21.20
2018-08-27T10:58:12.473Z,21.40
2018-08-27T11:00:40.138Z,21.50
2018-08-27T11:03:07.938Z,21.60
2018-08-27T11:05:35.630Z,21.50
2018-08-27T11:08:03.366Z,21.60
2018-08-27T11:10:31.053Z,22.00
2018-08-27T11:12:58.818Z,22.40
2018-08-27T11:15:26.516Z,22.70
2018-08-27T11:17:54.314Z,22.60
2018-08-27T11:20:22.303Z,22.40
2018-08-27T11:22:49.914Z,22.20
2018-08-27T11:25:17.621Z,22.20
2018-08-27T11:27:45.294Z,22.00
2018-08-27T11:30:13.026Z,22.00
2018-08-27T11:32:42.649Z,22.20
2018-08-27T11:35:10.788Z,22.10
2018-08-27T11:37:38.629Z,22.00
2018-08-27T11:40:08.590Z,22.20
2018-08-27T11:42:37.785Z,22.40
2018-08-27T11:45:05.730Z,22.50
2018-08-27T11:47:33.402Z,22.50
2018-08-27T11:50:01.094Z,22.60
2018-08-27T11:52:28.781Z,22.70
2018-08-27T11:54:56.538Z,22.70
2018-08-27T11:57:24.198Z,23.20
2018-08-27T11:59:51.917Z,23.40
2018-08-27T12:02:19.651Z,23.40
2018-08-27T12:04:47.366Z,23.60
2018-08-27T12:07:16.150Z,23.80
2018-08-27T12:09:44.222Z,23.50
2018-08-27T12:12:11.885Z,23.10
2018-08-27T12:14:39.739Z,22.70
2018-08-27T12:17:07.474Z,22.50
2018-08-27T12:19:35.174Z,22.40
2018-08-27T12:22:02.942Z,22.40
2018-08-27T12:24:30.635Z,22.10
2018-08-27T12:26:58.329Z,22.30
2018-08-27T12:29:25.998Z,22.70
2018-08-27T12:31:53.743Z,23.30
2018-08-27T12:34:22.439Z,23.70
2018-08-27T12:36:50.140Z,23.60
2018-08-27T12:39:18.051Z,23.70
2018-08-27T12:41:45.768Z,24.00
2018-08-27T12:44:13.450Z,24.30
2018-08-27T12:46:41.265Z,24.30
2018-08-27T12:49:09.746Z,24.10
2018-08-27T12:51:37.425Z,24.00
2018-08-27T12:54:05.162Z,24.20
2018-08-27T12:56:32.838Z,24.30
2018-08-27T12:59:00.510Z,24.30
2018-08-27T13:01:29.217Z,24.10
2018-08-27T13:03:57.338Z,23.90
2018-08-27T13:06:25.030Z,23.70
2018-08-27T13:08:52.743Z,24.10
2018-08-27T13:11:21.326Z,24.30
2018-08-27T13:13:48.964Z,23.80
2018-08-27T13:16:16.669Z,23.70
2018-08-27T13:18:44.346Z,23.60
2018-08-27T13:21:17.646Z,23.30
2018-08-27T13:23:45.398Z,23.30
2018-08-27T13:26:13.172Z,23.10
2018-08-27T13:28:40.842Z,23.60
2018-08-27T13:31:08.588Z,23.90
2018-08-27T13:33:36.297Z,24.20
2018-08-27T13:36:04.148Z,24.30
2018-08-27T13:38:32.115Z,24.70
2018-08-27T13:40:59.822Z,24.70
2018-08-27T13:43:27.555Z,24.90
2018-08-27T13:45:55.225Z,25.00
2018-08-27T13:48:22.990Z,25.60
2018-08-27T13:50:50.703Z,25.40
2018-08-27T13:53:18.406Z,25.30
2018-08-27T13:55:46.097Z,25.40
2018-08-27T13:58:13.791Z,26.00
2018-08-27T14:00:41.485Z,25.60
2018-08-27T14:03:09.210Z,27.20
2018-08-27T14:05:36.874Z,28.10
2018-08-27T14:08:04.586Z,28.30
2018-08-27T14:10:32.316Z,28.30
2018-08-27T14:13:00.852Z,28.60
2018-08-27T14:15:28.701Z,29.10
2018-08-27T14:17:56.818Z,28.60
2018-08-27T14:20:25.530Z,28.40
2018-08-27T14:22:53.806Z,29.30
2018-08-27T14:25:21.658Z,30.00
2018-08-27T14:27:49.806Z,29.70
2018-08-27T14:30:17.710Z,30.80
2018-08-27T14:32:45.457Z,31.20
2018-08-27T14:35:13.126Z,30.50
2018-08-27T14:37:40.902Z,30.40
2018-08-27T14:40:09.178Z,29.00
2018-08-27T14:42:36.857Z,27.00
2018-08-27T14:45:05.219Z,27.70
2018-08-27T14:47:32.862Z,26.70
2018-08-27T14:50:00.774Z,26.50
2018-08-27T14:52:28.445Z,26.80
2018-08-27T14:54:56.177Z,26.40
2018-08-27T14:57:24.039Z,26.60
2018-08-27T14:59:51.802Z,27.00
2018-08-27T15:02:19.486Z,26.40
2018-08-27T15:04:47.172Z,26.30
2018-08-27T15:07:14.883Z,27.30
2018-08-27T15:09:42.629Z,28.80
2018-08-27T15:12:10.275Z,29.60
2018-08-27T15:14:38.058Z,30.40
2018-08-27T15:17:05.802Z,30.10
2018-08-27T15:19:33.454Z,29.20
2018-08-27T15:22:01.431Z,28.80
2018-08-27T15:24:29.202Z,29.80
2018-08-27T15:26:56.950Z,29.10
2018-08-27T15:29:24.818Z,27.70
2018-08-27T15:31:52.517Z,28.10
2018-08-27T15:34:20.186Z,29.10
2018-08-27T15:36:47.894Z,29.90
2018-08-27T15:39:15.562Z,29.50
2018-08-27T15:41:43.290Z,29.80
2018-08-27T15:44:10.982Z,28.60
2018-08-27T15:46:41.340Z,27.00
2018-08-27T15:49:10.814Z,25.50
2018-08-27T15:51:39.059Z,25.30
2018-08-27T15:54:07.768Z,25.40
2018-08-27T15:56:35.694Z,26.20
2018-08-27T15:59:03.405Z,26.40
2018-08-27T16:01:31.734Z,26.90
2018-08-27T16:03:59.456Z,26.70
2018-08-27T16:06:27.173Z,26.80
2018-08-27T16:08:54.873Z,26.30
2018-08-27T16:11:22.619Z,26.30
2018-08-27T16:13:50.334Z,27.50
2018-08-27T16:16:18.045Z,26.50
2018-08-27T16:18:51.947Z,25.50
2018-08-27T16:21:19.709Z,24.80
2018-08-27T16:23:47.436Z,24.20
2018-08-27T16:26:15.202Z,23.90
2018-08-27T16:28:43.524Z,23.80
2018-08-27T16:31:11.226Z,23.70
2018-08-27T16:33:39.547Z,23.70
2018-08-27T16:36:07.251Z,23.70
2018-08-27T16:38:35.865Z,23.40
2018-08-27T16:41:03.786Z,23.10
2018-08-27T16:46:00.714Z,22.40
2018-08-27T16:48:28.619Z,22.40
2018-08-27T16:50:56.323Z,22.30
2018-08-27T16:53:24.406Z,22.30
2018-08-27T16:55:52.106Z,22.20
2018-08-27T16:58:19.848Z,22.20
2018-08-27T17:00:47.573Z,22.00
2018-08-27T17:03:15.248Z,21.90
2018-08-27T17:05:42.994Z,21.80
2018-08-27T17:08:10.682Z,21.60
2018-08-27T17:10:38.598Z,21.60
2018-08-27T17:13:06.452Z,21.60
2018-08-27T17:15:34.166Z,21.50
2018-08-27T17:18:01.962Z,21.40
2018-08-27T17:20:29.949Z,21.20
2018-08-27T17:22:57.914Z,21.20
2018-08-27T17:25:25.591Z,21.10
2018-08-27T17:27:53.290Z,21.00
2018-08-27T17:30:20.986Z,21.00
2018-08-27T17:32:48.702Z,21.00
2018-08-27T17:35:16.419Z,21.10
2018-08-27T17:37:44.566Z,21.00
2018-08-27T17:40:12.266Z,20.90
2018-08-27T17:42:39.986Z,20.90
2018-08-27T17:45:07.854Z,20.90
2018-08-27T17:47:35.625Z,20.70
2018-08-27T17:50:06.754Z,20.70
2018-08-27T17:52:34.587Z,20.50
2018-08-27T17:55:02.276Z,20.50
2018-08-27T17:57:29.999Z,20.40
2018-08-27T17:59:58.054Z,20.40
2018-08-27T18:02:25.885Z,20.40
2018-08-27T18:04:53.613Z,20.40
2018-08-27T18:07:21.278Z,20.30
2018-08-27T18:09:49.177Z,20.20
2018-08-27T18:12:16.904Z,20.10
2018-08-27T18:14:44.620Z,20.10
2018-08-27T18:17:12.342Z,19.90
2018-08-27T18:19:40.102Z,19.90
2018-08-27T18:22:07.791Z,19.80
2018-08-27T18:24:35.842Z,19.70
2018-08-27T18:27:03.557Z,19.60
2018-08-27T18:29:31.266Z,19.50
2018-08-27T18:31:58.959Z,19.40
2018-08-27T18:34:26.703Z,19.30
2018-08-27T18:36:54.409Z,19.30
2018-08-27T18:39:22.110Z,19.20
2018-08-27T18:41:49.821Z,19.10
2018-08-27T18:44:17.559Z,19.10
2018-08-27T18:46:45.801Z,19.10
2018-08-27T18:49:13.500Z,19.20
2018-08-27T18:51:41.289Z,19.10
2018-08-27T18:54:09.019Z,19.00
2018-08-27T18:56:36.746Z,18.90
2018-08-27T18:59:04.463Z,18.90
2018-08-27T19:01:37.746Z,18.90
2018-08-27T19:04:05.484Z,18.90
2018-08-27T19:06:33.551Z,18.90
2018-08-27T19:09:01.510Z,18.80
2018-08-27T19:11:29.992Z,18.80
2018-08-27T19:13:57.623Z,18.80
2018-08-27T19:16:25.322Z,18.80
2018-08-27T19:18:53.167Z,18.80
2018-08-27T19:21:20.857Z,18.80
2018-08-27T19:23:48.579Z,18.70
2018-08-27T19:26:16.319Z,18.70
2018-08-27T19:28:44.210Z,18.70
2018-08-27T19:31:11.938Z,18.70
2018-08-27T19:33:39.639Z,18.60
2018-08-27T19:36:08.099Z,18.60
2018-08-27T19:38:36.582Z,18.60
2018-08-27T19:41:05.007Z,18.60
2018-08-27T19:43:36.802Z,18.70
2018-08-27T19:46:04.780Z,18.60
2018-08-27T19:48:32.439Z,18.60
2018-08-27T19:51:00.127Z,18.60
2018-08-27T19:53:27.830Z,18.60
2018-08-27T19:55:55.574Z,18.60
2018-08-27T19:58:23.278Z,18.60
2018-08-27T20:00:51.073Z,18.60
2018-08-27T20:03:19.495Z,18.60
2018-08-27T20:05:48.130Z,18.50
2018-08-27T20:08:15.848Z,18.50
2018-08-27T20:10:46.326Z,18.50
2018-08-27T20:13:14.078Z,18.40
2018-08-27T20:15:41.814Z,18.40
2018-08-27T20:18:09.554Z,18.40
2018-08-27T20:20:37.609Z,18.40
2018-08-27T20:23:06.158Z,18.40
2018-08-27T20:25:34.274Z,18.40
2018-08-27T20:28:01.962Z,18.40
2018-08-27T20:30:29.724Z,18.40
2018-08-27T20:32:57.485Z,18.40
2018-08-27T20:35:26.458Z,18.30
2018-08-27T20:37:54.143Z,18.30
2018-08-27T20:40:21.999Z,18.40
2018-08-27T20:42:49.829Z,18.30
2018-08-27T20:45:18.255Z,18.30
2018-08-27T20:47:45.982Z,18.40
2018-08-27T20:50:13.732Z,18.40
2018-08-27T20:52:42.194Z,18.30
2018-08-27T20:55:09.927Z,18.30
2018-08-27T20:57:37.921Z,18.40
2018-08-27T21:00:05.914Z,18.30
2018-08-27T21:02:34.133Z,18.30
2018-08-27T21:05:01.858Z,18.30
2018-08-27T21:07:30.354Z,18.30
2018-08-27T21:09:58.101Z,18.30
2018-08-27T21:12:25.881Z,18.30
2018-08-27T21:15:12.804Z,18.30
2018-08-27T21:17:41.679Z,18.30
2018-08-27T21:20:10.281Z,18.30
2018-08-27T21:22:38.051Z,18.30
2018-08-27T21:25:07.558Z,18.20
2018-08-27T21:27:35.906Z,18.20
2018-08-27T21:30:04.099Z,18.20
2018-08-27T21:32:31.826Z,18.20
2018-08-27T21:34:59.530Z,18.10
2018-08-27T21:37:27.301Z,18.20
2018-08-27T21:39:55.044Z,18.20
2018-08-27T21:42:24.134Z,18.20
2018-08-27T21:44:52.831Z,18.20
2018-08-27T21:47:24.303Z,18.20
2018-08-27T21:49:52.006Z,18.20
2018-08-27T21:52:19.698Z,18.20
2018-08-27T21:54:47.798Z,18.20
2018-08-27T21:57:15.469Z,18.20
2018-08-27T21:59:43.376Z,18.20
2018-08-27T22:02:16.561Z,18.00
2018-08-27T22:04:44.282Z,18.00
2018-08-27T22:07:11.938Z,18.00
2018-08-27T22:09:39.613Z,18.00
2018-08-27T22:12:07.335Z,18.00
2018-08-27T22:14:35.083Z,18.00
2018-08-27T22:17:06.166Z,18.00
2018-08-27T22:19:34.400Z,18.00
2018-08-27T22:22:02.193Z,17.90
2018-08-27T22:24:29.850Z,17.90
2018-08-27T22:26:57.507Z,17.90
2018-08-27T22:29:25.162Z,17.80
2018-08-27T22:31:53.369Z,17.80
2018-08-27T22:34:20.984Z,17.90
2018-08-27T22:36:48.670Z,17.90
2018-08-27T22:39:16.381Z,17.90
2018-08-27T22:41:44.088Z,17.90
2018-08-27T22:44:11.797Z,17.80
2018-08-27T22:46:40.939Z,17.90
2018-08-27T22:49:08.701Z,17.90
2018-08-27T22:51:36.622Z,17.90
2018-08-27T22:54:04.706Z,17.80
2018-08-27T22:56:32.581Z,17.80
2018-08-27T22:59:00.511Z,17.80
2018-08-27T23:01:28.197Z,17.90
2018-08-27T23:04:01.541Z,17.80
2018-08-27T23:06:30.210Z,17.80
2018-08-27T23:08:57.885Z,17.80
2018-08-27T23:11:25.829Z,17.80
2018-08-27T23:13:57.684Z,17.80
2018-08-27T23:16:28.509Z,17.80
2018-08-27T23:18:56.221Z,17.80
2018-08-27T23:21:23.878Z,17.80
2018-08-27T23:23:51.529Z,17.70
2018-08-27T23:26:19.216Z,17.70
2018-08-27T23:28:47.090Z,17.70
2018-08-27T23:31:14.757Z,17.70
2018-08-27T23:33:42.433Z,17.70
2018-08-27T23:36:10.144Z,17.70
2018-08-27T23:38:37.869Z,17.80
2018-08-27T23:41:05.636Z,17.70
2018-08-27T23:43:33.360Z,17.80
2018-08-27T23:46:01.102Z,17.80
2018-08-27T23:48:29.497Z,17.70
2018-08-27T23:50:57.202Z,17.70
2018-08-27T23:53:24.899Z,17.70
2018-08-27T23:55:52.690Z,17.70
2018-08-27T23:58:20.438Z,17.60
